Princeville, North Carolina
Current Conditions -  °F | °C
As of 5:38 AM on Monday 22 Dec 2014 (Local Time) from KETC Reporting Station
Moderate Rain Moderate Rain  
Wind Chill: 30°   Ceiling: 600
Heat Index: 37°   Visibility: 3mi
Dew Point: 37°   Wind: 10mph
Humidity: 100%   Direction: 10°N
Pressure: 30.15"   Gusts: 17mph
Location:  35.9133°N, 77.5633°W
Report Text: KETC 221038Z AUTO 01009G15KT 3SM RA OVC006 03/03 A3015 RMK AO2 P0005
Loading
Personal Weather Stations






























Interactive Weather Map New forecast layout! Learn more

10-Day Weather Forecast

Advertisements
Track Severe Weather on mobile